PWSweather.com
Personal Weather Stations
Station Observations

BunburyAU

Lat: -33.378333, Lon: 115.651667

Elevation: 95

Station Type: Fine Offset WH2081

http://www.sedgleymanor.com/wx/index.htm

Latest ConditionsUpdated 8:00:01 AM GMT+08:08 Monday, Sep 22, 2014
Currently Today's Max Today's Min Today's Average
Temperature 59.2°F15.1°C 59.2°F15.1°C 44.8°F7.1°C 48.6°F9.2°C
Dew Point 46.6°F8.1°C 48.2°F9.0°C 42.5°F5.8°C 46.0°F7.8°C
Winds 2.5 mph SSE4.0 kmh SSE 3.5 mph S5.6 kmh S - 1.6 mph 2.6 kmh
Wind Gusts 7.6 mph12.2 kmh 9.8 mph15.8 kmh - -
Humidity 63% 100% 63% 91%
Pressure 30.14 in1020.7 mb 30.14 in1020.7 mb 29.97 in1014.9 mb -
Hour Temp Dew Point Humidity Winds Wind Gusts Pressure Precip Precip Rate Daily Precip Total
08:00 AM 59.2°F15.1°C 46.6°F8.1°C 63% 2.5 mph SSE4.0 kmh SSE 7.6 mph12.2 kmh 30.14 in1020.7 mb 0.00 in0.0 mm 0.00 in/hr0.0 mm/hr 0.00 in0.0 mm
07:45 AM 57.4°F14.1°C 47.7°F8.7°C 70% 3.0 mph SE4.8 kmh SE 9.8 mph15.8 kmh 30.14 in1020.7 mb 0.00 in0.0 mm 0.00 in/hr0.0 mm/hr 0.00 in0.0 mm
07:30 AM 52.0°F11.1°C 45.7°F7.6°C 79% 2.9 mph SE4.7 kmh SE 6.0 mph9.7 kmh 30.14 in1020.7 mb 0.00 in0.0 mm 0.00 in/hr0.0 mm/hr 0.00 in0.0 mm
07:15 AM 53.1°F11.7°C 47.1°F8.4°C 80% 2.3 mph SE3.7 kmh SE 5.4 mph8.7 kmh 30.14 in1020.7 mb 0.00 in0.0 mm 0.00 in/hr0.0 mm/hr 0.00 in0.0 mm
07:00 AM 52.0°F11.1°C 46.0°F7.8°C 80% 2.2 mph SE3.5 kmh SE 5.4 mph8.7 kmh 30.12 in1020.0 mb 0.00 in0.0 mm 0.00 in/hr0.0 mm/hr 0.00 in0.0 mm
06:45 AM 48.2°F9.0°C 46.3°F7.9°C 93% 1.8 mph SE2.9 kmh SE 3.8 mph6.1 kmh 30.10 in1019.3 mb 0.00 in0.0 mm 0.00 in/hr0.0 mm/hr 0.00 in0.0 mm
06:30 AM 45.3°F7.4°C 44.0°F6.7°C 95% 1.5 mph SSE2.4 kmh SSE 3.8 mph6.1 kmh 30.10 in1019.3 mb 0.00 in0.0 mm 0.00 in/hr0.0 mm/hr 0.00 in0.0 mm
06:15 AM 44.8°F7.1°C 42.6°F5.9°C 92% 1.3 mph SE2.1 kmh SE 3.8 mph6.1 kmh 30.09 in1019.0 mb 0.00 in0.0 mm 0.00 in/hr0.0 mm/hr 0.00 in0.0 mm
06:00 AM 45.0°F7.2°C 42.5°F5.8°C 91% 0.3 mph W0.5 kmh W 1.6 mph2.6 kmh 30.08 in1018.6 mb 0.00 in0.0 mm 0.00 in/hr0.0 mm/hr 0.00 in0.0 mm
05:45 AM 45.7°F7.6°C 42.9°F6.1°C 90% 0.9 mph S1.4 kmh S 4.5 mph7.2 kmh 30.08 in1018.6 mb 0.00 in0.0 mm 0.00 in/hr0.0 mm/hr 0.00 in0.0 mm
05:30 AM 45.9°F7.7°C 43.4°F6.3°C 91% 2.5 mph S4.0 kmh S 5.4 mph8.7 kmh 30.07 in1018.3 mb 0.00 in0.0 mm 0.00 in/hr0.0 mm/hr 0.00 in0.0 mm
05:15 AM 45.5°F7.5°C 42.7°F5.9°C 90% 0.6 mph SW1.0 kmh SW 3.8 mph6.1 kmh 30.06 in1017.9 mb 0.00 in0.0 mm 0.00 in/hr0.0 mm/hr 0.00 in0.0 mm
05:00 AM 46.4°F8.0°C 43.0°F6.1°C 88% 2.0 mph S3.2 kmh S 6.0 mph9.7 kmh 30.05 in1017.6 mb 0.00 in0.0 mm 0.00 in/hr0.0 mm/hr 0.00 in0.0 mm
04:45 AM 46.9°F8.3°C 43.6°F6.4°C 88% 3.1 mph S5.0 kmh S 7.6 mph12.2 kmh 30.04 in1017.3 mb 0.00 in0.0 mm 0.00 in/hr0.0 mm/hr 0.00 in0.0 mm
04:30 AM 47.5°F8.6°C 45.0°F7.2°C 91% 3.5 mph S5.6 kmh S 8.3 mph13.4 kmh 30.04 in1017.3 mb 0.00 in0.0 mm 0.00 in/hr0.0 mm/hr 0.00 in0.0 mm
04:15 AM 47.7°F8.7°C 46.6°F8.1°C 96% 2.4 mph SW3.9 kmh SW 9.8 mph15.8 kmh 30.04 in1017.3 mb 0.00 in0.0 mm 0.00 in/hr0.0 mm/hr 0.00 in0.0 mm
04:00 AM 47.3°F8.5°C 47.3°F8.5°C 100% 2.1 mph SW3.4 kmh SW 7.6 mph12.2 kmh 30.03 in1016.9 mb 0.00 in0.0 mm 0.00 in/hr0.0 mm/hr 0.00 in0.0 mm
03:45 AM 46.9°F8.3°C 46.1°F7.8°C 97% 0.5 mph SW0.8 kmh SW 2.2 mph3.5 kmh 30.02 in1016.6 mb 0.00 in0.0 mm 0.00 in/hr0.0 mm/hr 0.00 in0.0 mm
03:30 AM 46.9°F8.3°C 46.1°F7.8°C 97% 0.1 mph WSW0.2 kmh WSW 1.6 mph2.6 kmh 30.01 in1016.3 mb 0.00 in0.0 mm 0.00 in/hr0.0 mm/hr 0.00 in0.0 mm
03:15 AM 47.7°F8.7°C 47.7°F8.7°C 100% 1.6 mph SW2.6 kmh SW 4.5 mph7.2 kmh 30.01 in1016.3 mb 0.00 in0.0 mm 0.00 in/hr0.0 mm/hr 0.00 in0.0 mm
03:00 AM 47.5°F8.6°C 46.7°F8.2°C 97% 0.7 mph SW1.1 kmh SW 3.1 mph5.0 kmh 30.01 in1016.3 mb 0.00 in0.0 mm 0.00 in/hr0.0 mm/hr 0.00 in0.0 mm
02:45 AM 47.5°F8.6°C 46.7°F8.2°C 97% 1.0 mph S1.6 kmh S 3.8 mph6.1 kmh 29.99 in1015.6 mb 0.00 in0.0 mm 0.00 in/hr0.0 mm/hr 0.00 in0.0 mm
02:30 AM 47.7°F8.7°C 46.9°F8.3°C 97% 1.2 mph SW1.9 kmh SW 3.8 mph6.1 kmh 29.99 in1015.6 mb 0.00 in0.0 mm 0.00 in/hr0.0 mm/hr 0.00 in0.0 mm
02:15 AM 47.8°F8.8°C 46.8°F8.2°C 96% 1.3 mph SW2.1 kmh SW 4.5 mph7.2 kmh 29.99 in1015.6 mb 0.00 in0.0 mm 0.00 in/hr0.0 mm/hr 0.00 in0.0 mm
02:00 AM 48.2°F9.0°C 46.8°F8.2°C 95% 1.6 mph SW2.6 kmh SW 4.5 mph7.2 kmh 29.99 in1015.6 mb 0.00 in0.0 mm 0.00 in/hr0.0 mm/hr 0.00 in0.0 mm
01:45 AM 48.4°F9.1°C 47.0°F8.3°C 95% 0.9 mph SSW1.4 kmh SSW 5.4 mph8.7 kmh 29.99 in1015.6 mb 0.00 in0.0 mm 0.00 in/hr0.0 mm/hr 0.00 in0.0 mm
01:30 AM 48.9°F9.4°C 47.6°F8.7°C 95% 2.0 mph S3.2 kmh S 4.5 mph7.2 kmh 29.99 in1015.6 mb 0.00 in0.0 mm 0.00 in/hr0.0 mm/hr 0.00 in0.0 mm
01:15 AM 49.3°F9.6°C 48.2°F9.0°C 96% 1.7 mph SSE2.7 kmh SSE 5.4 mph8.7 kmh 29.98 in1015.2 mb 0.00 in0.0 mm 0.00 in/hr0.0 mm/hr 0.00 in0.0 mm
01:00 AM 49.3°F9.6°C 48.2°F9.0°C 96% 1.6 mph SSW2.6 kmh SSW 5.4 mph8.7 kmh 29.98 in1015.2 mb 0.00 in0.0 mm 0.00 in/hr0.0 mm/hr 0.00 in0.0 mm
12:45 AM 49.1°F9.5°C 48.0°F8.9°C 96% 1.6 mph SSW2.6 kmh SSW 4.5 mph7.2 kmh 29.99 in1015.6 mb 0.00 in0.0 mm 0.00 in/hr0.0 mm/hr 0.00 in0.0 mm
12:30 AM 49.1°F9.5°C 47.7°F8.7°C 95% 1.2 mph SW1.9 kmh SW 4.5 mph7.2 kmh 29.98 in1015.2 mb 0.00 in0.0 mm 0.00 in/hr0.0 mm/hr 0.00 in0.0 mm
12:15 AM 49.3°F9.6°C 47.9°F8.8°C 95% 1.4 mph SW2.3 kmh SW 3.8 mph6.1 kmh 29.98 in1015.2 mb 0.00 in0.0 mm 0.00 in/hr0.0 mm/hr 0.00 in0.0 mm
12:00 AM 49.5°F9.7°C 47.8°F8.8°C 94% 1.1 mph SW1.8 kmh SW 4.5 mph7.2 kmh 29.97 in1014.9 mb 0.00 in0.0 mm 0.00 in/hr0.0 mm/hr 0.00 in0.0 mm